Delawanna, New Jersey
Current Conditions -  °F | °C
As of 10:51 AM on Friday 24 Oct 2014 (Local Time) from KTEB Reporting Station
Few Clouds Few Clouds  
Wind Chill: 56°   Ceiling: Unl
Heat Index: 56°   Visibility: 10mi
Dew Point: 42°   Wind: 14mph
Humidity: 60%   Direction: 320°NW
Pressure: 29.81"   Gusts: NA
Location:  40.8318°N, 74.1362°W
Report Text: KTEB 241451Z 32012KT 10SM FEW043 13/06 A2981 RMK AO2 SLP096 T01330056 50003
Loading
Personal Weather Stations






























Interactive Weather Map
Tropical Storm Tracking
New forecast layout! Learn more

10-Day Weather Forecast

Advertisements
Track Severe Weather on mobile